createdAt,value
2017-01-18T00:00:09.068Z,1034.67
2017-01-18T00:01:09.007Z,1034.63
2017-01-18T00:02:08.944Z,1034.65
2017-01-18T00:03:08.881Z,1034.62
2017-01-18T00:04:08.820Z,1034.66
2017-01-18T00:05:08.758Z,1034.68
2017-01-18T00:06:08.694Z,1034.65
2017-01-18T00:07:08.632Z,1034.58
2017-01-18T00:08:08.570Z,1034.58
2017-01-18T00:09:08.507Z,1034.55
2017-01-18T00:10:08.445Z,1034.52
2017-01-18T00:11:08.383Z,1034.54
2017-01-18T00:12:08.321Z,1034.54
2017-01-18T00:13:08.258Z,1034.62
2017-01-18T00:14:08.196Z,1034.68
2017-01-18T00:15:08.134Z,1034.77
2017-01-18T00:16:08.072Z,1034.76
2017-01-18T00:17:08.009Z,1034.8
2017-01-18T00:18:07.947Z,1034.8
2017-01-18T00:19:07.884Z,1034.81
2017-01-18T00:20:07.822Z,1034.8
2017-01-18T00:21:07.760Z,1034.81
2017-01-18T00:22:07.698Z,1034.88
2017-01-18T00:23:07.636Z,1034.88
2017-01-18T00:24:07.573Z,1034.88
2017-01-18T00:25:07.511Z,1034.87
2017-01-18T00:26:07.449Z,1034.85
2017-01-18T00:27:07.387Z,1034.82
2017-01-18T00:28:07.323Z,1034.83
2017-01-18T00:29:07.262Z,1034.84
2017-01-18T00:30:07.200Z,1034.86
2017-01-18T00:31:07.136Z,1034.89
2017-01-18T00:32:07.075Z,1034.89
2017-01-18T00:33:07.012Z,1034.89
2017-01-18T00:34:06.953Z,1034.88
2017-01-18T00:35:06.887Z,1034.93
2017-01-18T00:36:06.825Z,1034.95
2017-01-18T00:37:06.763Z,1034.98
2017-01-18T00:38:06.701Z,1035.01
2017-01-18T00:39:06.639Z,1035.02
2017-01-18T00:40:06.577Z,1035.01
2017-01-18T00:41:06.515Z,1034.95
2017-01-18T00:42:06.451Z,1034.96
2017-01-18T00:43:06.390Z,1034.89
2017-01-18T00:44:06.328Z,1034.89
2017-01-18T00:45:06.266Z,1034.83
2017-01-18T00:46:06.203Z,1034.8
2017-01-18T00:47:06.141Z,1034.8
2017-01-18T00:48:06.079Z,1034.84
2017-01-18T00:49:06.018Z,1034.86
2017-01-18T00:50:05.954Z,1034.87
2017-01-18T00:51:05.893Z,1034.85
2017-01-18T00:52:05.829Z,1034.89
2017-01-18T00:53:05.767Z,1034.87
2017-01-18T00:54:05.705Z,1034.89
2017-01-18T00:55:05.647Z,1034.95
2017-01-18T00:56:05.581Z,1034.88
2017-01-18T00:57:05.518Z,1034.84
2017-01-18T00:58:05.456Z,1034.83
2017-01-18T00:59:05.395Z,1034.84
2017-01-18T01:01:10.474Z,1034.94
2017-01-18T01:02:10.400Z,1034.95
2017-01-18T01:03:10.338Z,1035.01
2017-01-18T01:04:10.277Z,1035.04
2017-01-18T01:05:10.213Z,1035.11
2017-01-18T01:06:10.151Z,1035.1
2017-01-18T01:07:10.090Z,1035.14
2017-01-18T01:08:10.026Z,1035.15
2017-01-18T01:09:09.964Z,1035.15
2017-01-18T01:10:09.910Z,1035.18
2017-01-18T01:11:09.839Z,1035.16
2017-01-18T01:12:09.777Z,1035.18
2017-01-18T01:13:09.715Z,1035.17
2017-01-18T01:14:09.653Z,1035.2
2017-01-18T01:15:09.590Z,1035.18
2017-01-18T01:16:09.528Z,1035.19
2017-01-18T01:17:09.466Z,1035.23
2017-01-18T01:18:09.405Z,1035.26
2017-01-18T01:19:09.341Z,1035.24
2017-01-18T01:20:09.280Z,1035.3
2017-01-18T01:21:09.218Z,1035.33
2017-01-18T01:22:09.154Z,1035.38
2017-01-18T01:23:09.093Z,1035.35
2017-01-18T01:24:09.031Z,1035.35
2017-01-18T01:25:08.968Z,1035.32
2017-01-18T01:26:08.906Z,1035.3
2017-01-18T01:27:08.843Z,1035.28
2017-01-18T01:28:08.781Z,1035.3
2017-01-18T01:29:08.719Z,1035.34
2017-01-18T01:30:08.656Z,1035.34
2017-01-18T01:31:08.594Z,1035.37
2017-01-18T01:32:08.532Z,1035.39
2017-01-18T01:33:08.469Z,1035.39
2017-01-18T01:34:08.407Z,1035.35
2017-01-18T01:35:08.345Z,1035.35
2017-01-18T01:36:08.286Z,1035.39
2017-01-18T01:37:08.220Z,1035.37
2017-01-18T01:38:08.159Z,1035.34
2017-01-18T01:39:08.097Z,1035.33
2017-01-18T01:40:08.034Z,1035.4
2017-01-18T01:41:07.971Z,1035.37
2017-01-18T01:42:07.909Z,1035.36
2017-01-18T01:43:07.848Z,1035.31
2017-01-18T01:44:07.784Z,1035.31
2017-01-18T01:45:07.722Z,1035.29
2017-01-18T01:46:07.661Z,1035.34
2017-01-18T01:47:07.598Z,1035.33
2017-01-18T01:48:07.536Z,1035.34
2017-01-18T01:49:07.473Z,1035.34
2017-01-18T01:50:07.415Z,1035.34
2017-01-18T01:51:07.352Z,1035.32
2017-01-18T01:52:07.286Z,1035.29
2017-01-18T01:53:07.224Z,1035.32
2017-01-18T01:54:07.163Z,1035.33
2017-01-18T01:55:07.099Z,1035.32
2017-01-18T01:56:07.038Z,1035.28
2017-01-18T01:57:06.977Z,1035.28
2017-01-18T01:58:06.914Z,1035.25
2017-01-18T01:59:06.851Z,1035.3
2017-01-18T02:00:06.789Z,1035.27
2017-01-18T02:01:06.727Z,1035.27
2017-01-18T02:02:06.665Z,1035.25
2017-01-18T02:03:06.602Z,1035.23
2017-01-18T02:04:06.541Z,1035.19
2017-01-18T02:05:06.478Z,1035.21
2017-01-18T02:06:06.416Z,1035.19
2017-01-18T02:07:06.353Z,1035.17
2017-01-18T02:08:06.291Z,1035.18
2017-01-18T02:09:06.230Z,1035.14
2017-01-18T02:10:06.166Z,1035.1
2017-01-18T02:11:06.104Z,1035.11
2017-01-18T02:12:06.042Z,1035.09
2017-01-18T02:13:05.981Z,1035.1
2017-01-18T02:14:05.917Z,1035.07
2017-01-18T02:15:05.855Z,1035.03
2017-01-18T02:16:05.793Z,1035
2017-01-18T02:17:05.731Z,1034.97
2017-01-18T02:18:05.668Z,1035.01
2017-01-18T02:19:05.606Z,1035.05
2017-01-18T02:20:05.545Z,1035.02
2017-01-18T02:21:05.481Z,1035.09
2017-01-18T02:22:05.419Z,1035.1
2017-01-18T02:23:05.360Z,1035.1
2017-01-18T02:24:05.295Z,1035.1
2017-01-18T02:25:05.234Z,1035.1
2017-01-18T02:26:05.171Z,1035.09
2017-01-18T02:27:05.109Z,1035.14
2017-01-18T02:28:05.045Z,1035.12
2017-01-18T02:29:04.983Z,1035.07
2017-01-18T02:30:04.922Z,1035.11
2017-01-18T02:31:04.861Z,1035.08
2017-01-18T02:32:04.796Z,1035.1
2017-01-18T02:33:04.734Z,1035.06
2017-01-18T02:34:04.673Z,1035.04
2017-01-18T02:35:04.611Z,1035.03
2017-01-18T02:36:04.549Z,1035.02
2017-01-18T02:37:04.489Z,1035.04
2017-01-18T02:38:04.425Z,1035.01
2017-01-18T02:39:04.363Z,1034.94
2017-01-18T02:40:04.300Z,1034.96
2017-01-18T02:41:04.238Z,1034.95
2017-01-18T02:42:04.176Z,1035
2017-01-18T02:43:04.113Z,1034.99
2017-01-18T02:44:04.052Z,1034.95
2017-01-18T02:45:03.989Z,1034.88
2017-01-18T02:46:03.926Z,1034.9
2017-01-18T02:47:03.864Z,1034.89
2017-01-18T02:48:03.802Z,1034.92
2017-01-18T02:49:03.740Z,1034.9
2017-01-18T02:50:03.677Z,1034.93
2017-01-18T02:51:03.615Z,1034.93
2017-01-18T02:52:03.553Z,1034.95
2017-01-18T02:53:03.491Z,1034.94
2017-01-18T02:54:03.428Z,1034.92
2017-01-18T02:55:03.366Z,1034.91
2017-01-18T02:56:03.304Z,1034.89
2017-01-18T02:57:03.241Z,1034.9
2017-01-18T02:58:03.179Z,1034.91
2017-01-18T02:59:03.118Z,1034.9
2017-01-18T03:00:03.055Z,1034.92
2017-01-18T03:01:02.992Z,1034.91
2017-01-18T03:02:02.931Z,1034.92
2017-01-18T03:03:02.868Z,1034.95
2017-01-18T03:04:02.806Z,1034.97
2017-01-18T03:05:02.744Z,1035
2017-01-18T03:06:02.682Z,1035.05
2017-01-18T03:07:02.621Z,1035.06
2017-01-18T03:08:02.556Z,1035.12
2017-01-18T03:09:02.494Z,1035.09
2017-01-18T03:10:02.432Z,1035.05
2017-01-18T03:11:02.370Z,1035.01
2017-01-18T03:12:02.307Z,1035
2017-01-18T03:13:02.245Z,1034.92
2017-01-18T03:14:02.183Z,1034.92
2017-01-18T03:15:02.123Z,1034.91
2017-01-18T03:16:02.058Z,1034.94
2017-01-18T03:17:01.996Z,1034.96
2017-01-18T03:18:01.934Z,1034.97
2017-01-18T03:19:01.871Z,1034.98
2017-01-18T03:20:01.809Z,1034.99
2017-01-18T03:21:01.748Z,1035.02
2017-01-18T03:22:01.685Z,1035.03
2017-01-18T03:23:01.623Z,1034.96
2017-01-18T03:24:01.560Z,1034.95
2017-01-18T03:25:01.500Z,1034.97
2017-01-18T03:26:01.436Z,1035.01
2017-01-18T03:27:01.373Z,1035.09
2017-01-18T03:28:01.312Z,1035.11
2017-01-18T03:29:01.258Z,1035.05
2017-01-18T03:30:01.187Z,1034.96
2017-01-18T03:31:01.125Z,1034.92
2017-01-18T03:32:01.062Z,1034.89
2017-01-18T03:33:01.009Z,1034.89
2017-01-18T03:34:00.946Z,1034.92
2017-01-18T03:35:00.876Z,1034.94
2017-01-18T03:36:00.813Z,1034.97
2017-01-18T03:37:00.751Z,1035.04
2017-01-18T03:38:00.689Z,1035.08
2017-01-18T03:39:00.636Z,1035.1
2017-01-18T03:40:00.566Z,1035.13
2017-01-18T03:41:00.501Z,1035.14
2017-01-18T03:42:00.450Z,1035.14
2017-01-18T03:43:00.386Z,1035.09
2017-01-18T03:44:00.315Z,1035.1
2017-01-18T03:45:00.252Z,1035.09
2017-01-18T03:46:00.198Z,1035.12
2017-01-18T03:47:00.137Z,1035.15
2017-01-18T03:48:00.076Z,1035.13
2017-01-18T03:49:00.003Z,1035.13
2017-01-18T03:49:59.941Z,1035.19
2017-01-18T03:50:59.879Z,1035.16
2017-01-18T03:51:59.816Z,1035.14
2017-01-18T03:52:59.754Z,1035.11
2017-01-18T03:53:59.692Z,1035.06
2017-01-18T03:54:59.631Z,1035.03
2017-01-18T03:55:59.568Z,1035.05
2017-01-18T03:56:59.505Z,1035.03
2017-01-18T03:57:59.445Z,1035.08
2017-01-18T03:58:59.382Z,1035.02
2017-01-18T03:59:59.319Z,1035.03
2017-01-18T04:00:59.256Z,1035.04
2017-01-18T04:01:59.195Z,1035.04
2017-01-18T04:02:59.131Z,1035.07
2017-01-18T04:03:59.070Z,1035.08
2017-01-18T04:04:59.007Z,1035.09
2017-01-18T04:06:00.361Z,1035.07
2017-01-18T04:06:58.882Z,1035.08
2017-01-18T04:07:58.821Z,1035.1
2017-01-18T04:08:58.758Z,1035.09
2017-01-18T04:09:58.696Z,1034.98
2017-01-18T04:10:58.634Z,1034.98
2017-01-18T04:11:58.572Z,1035
2017-01-18T04:12:58.511Z,1034.97
2017-01-18T04:13:58.448Z,1035.01
2017-01-18T04:14:58.385Z,1035
2017-01-18T04:15:58.323Z,1035.01
2017-01-18T04:16:58.261Z,1035.01
2017-01-18T04:17:58.198Z,1035.05
2017-01-18T04:18:58.136Z,1035.04
2017-01-18T04:19:58.074Z,1035.04
2017-01-18T04:20:58.011Z,1035.05
2017-01-18T04:21:57.948Z,1035.08
2017-01-18T04:22:57.887Z,1035.16
2017-01-18T04:23:57.825Z,1035.13
2017-01-18T04:24:57.761Z,1035.17
2017-01-18T04:25:57.699Z,1035.14
2017-01-18T04:26:57.638Z,1035.16
2017-01-18T04:27:57.575Z,1035.12
2017-01-18T04:28:57.512Z,1035.1
2017-01-18T04:29:57.450Z,1035.06
2017-01-18T04:30:57.388Z,1035.11
2017-01-18T04:31:57.325Z,1035.08
2017-01-18T04:32:57.263Z,1035.11
2017-01-18T04:33:57.201Z,1035.18
2017-01-18T04:34:57.140Z,1035.13
2017-01-18T04:35:57.077Z,1035.17
2017-01-18T04:36:57.015Z,1035.12
2017-01-18T04:37:56.953Z,1035.05
2017-01-18T04:38:56.892Z,1035.02
2017-01-18T04:39:56.828Z,1035.03
2017-01-18T04:40:56.767Z,1035.04
2017-01-18T04:41:56.711Z,1035.02
2017-01-18T04:42:56.642Z,1034.98
2017-01-18T04:43:56.581Z,1034.98
2017-01-18T04:44:56.519Z,1035
2017-01-18T04:45:56.457Z,1035.03
2017-01-18T04:46:56.394Z,1035.05
2017-01-18T04:47:56.333Z,1035.07
2017-01-18T04:48:56.271Z,1035.11
2017-01-18T04:49:56.209Z,1035.13
2017-01-18T04:50:56.146Z,1035.18
2017-01-18T04:51:56.084Z,1035.23
2017-01-18T04:52:56.022Z,1035.22
2017-01-18T04:53:55.960Z,1035.19
2017-01-18T04:54:55.899Z,1035.15
2017-01-18T04:55:55.836Z,1035.12
2017-01-18T04:56:55.775Z,1035.12
2017-01-18T04:57:55.712Z,1035.12
2017-01-18T04:58:55.650Z,1035.12
2017-01-18T04:59:55.588Z,1035.1
2017-01-18T05:00:55.527Z,1035.11
2017-01-18T05:01:55.464Z,1035.09
2017-01-18T05:02:55.402Z,1035.11
2017-01-18T05:03:55.341Z,1035.12
2017-01-18T05:04:55.278Z,1035.12
2017-01-18T05:05:55.216Z,1035.12
2017-01-18T05:06:55.153Z,1035.08
2017-01-18T05:07:55.092Z,1035.11
2017-01-18T05:08:55.029Z,1035.17
2017-01-18T05:09:54.967Z,1035.19
2017-01-18T05:10:54.906Z,1035.19
2017-01-18T05:11:54.844Z,1035.19
2017-01-18T05:12:54.780Z,1035.14
2017-01-18T05:13:54.719Z,1035.13
2017-01-18T05:14:54.659Z,1035.13
2017-01-18T05:15:54.594Z,1035.14
2017-01-18T05:16:54.534Z,1035.13
2017-01-18T05:17:54.470Z,1035.15
2017-01-18T05:18:54.409Z,1035.71
2017-01-18T05:19:54.346Z,1035.77
2017-01-18T05:20:54.284Z,1035.41
2017-01-18T05:21:54.222Z,1035.42
2017-01-18T05:22:54.160Z,1035.4
2017-01-18T05:23:54.105Z,1035.39
2017-01-18T05:24:54.036Z,1035.41
2017-01-18T05:25:53.974Z,1035.46
2017-01-18T05:26:53.911Z,1035.45
2017-01-18T05:27:53.849Z,1035.45
2017-01-18T05:28:53.787Z,1035.47
2017-01-18T05:29:53.725Z,1035.47
2017-01-18T05:30:53.662Z,1035.4
2017-01-18T05:31:53.600Z,1035.45
2017-01-18T05:32:53.539Z,1035.51
2017-01-18T05:33:53.477Z,1035.48
2017-01-18T05:34:53.415Z,1035.48
2017-01-18T05:35:53.352Z,1035.49
2017-01-18T05:36:53.290Z,1035.46
2017-01-18T05:37:53.227Z,1035.45
2017-01-18T05:38:53.165Z,1035.47
2017-01-18T05:39:53.103Z,1035.52
2017-01-18T05:40:53.042Z,1035.52
2017-01-18T05:41:52.978Z,1035.53
2017-01-18T05:42:52.917Z,1035.56
2017-01-18T05:43:52.855Z,1035.54
2017-01-18T05:44:52.793Z,1035.54
2017-01-18T05:45:52.730Z,1035.56
2017-01-18T05:46:52.669Z,1035.5
2017-01-18T05:47:52.607Z,1035.49
2017-01-18T05:48:52.544Z,1035.49
2017-01-18T05:49:52.483Z,1035.48
2017-01-18T05:50:52.420Z,1035.44
2017-01-18T05:51:52.359Z,1035.45
2017-01-18T05:52:52.296Z,1035.42
2017-01-18T05:53:52.234Z,1035.42
2017-01-18T05:54:52.172Z,1035.49
2017-01-18T05:55:52.109Z,1035.49
2017-01-18T05:56:52.047Z,1035.51
2017-01-18T05:57:51.988Z,1035.51
2017-01-18T05:58:51.923Z,1035.52
2017-01-18T05:59:51.860Z,1035.55
2017-01-18T06:00:51.798Z,1035.53
2017-01-18T06:01:51.736Z,1035.56
2017-01-18T06:02:51.674Z,1035.56
2017-01-18T06:03:51.611Z,1035.54
2017-01-18T06:04:51.549Z,1035.52
2017-01-18T06:05:51.487Z,1035.6
2017-01-18T06:06:51.424Z,1035.64
2017-01-18T06:07:51.363Z,1035.66
2017-01-18T06:08:51.300Z,1035.66
2017-01-18T06:09:51.238Z,1035.69
2017-01-18T06:10:51.176Z,1035.75
2017-01-18T06:11:51.113Z,1035.74
2017-01-18T06:12:51.051Z,1035.72
2017-01-18T06:13:50.993Z,1035.72
2017-01-18T06:14:50.926Z,1035.77
2017-01-18T06:15:50.865Z,1035.8
2017-01-18T06:16:50.802Z,1035.72
2017-01-18T06:17:50.739Z,1035.66
2017-01-18T06:18:50.677Z,1035.65
2017-01-18T06:19:50.616Z,1035.65
2017-01-18T06:20:50.553Z,1035.67
2017-01-18T06:21:50.491Z,1035.66
2017-01-18T06:22:50.428Z,1035.66
2017-01-18T06:23:50.368Z,1035.63
2017-01-18T06:24:50.304Z,1035.67
2017-01-18T06:25:50.241Z,1035.66
2017-01-18T06:26:50.178Z,1035.69
2017-01-18T06:27:50.116Z,1035.68
2017-01-18T06:28:50.053Z,1035.71
2017-01-18T06:29:49.991Z,1035.7
2017-01-18T06:30:49.929Z,1035.76
2017-01-18T06:31:49.867Z,1035.75
2017-01-18T06:32:49.804Z,1035.77
2017-01-18T06:33:49.742Z,1035.74
2017-01-18T06:34:49.680Z,1035.72
2017-01-18T06:35:49.620Z,1035.7
2017-01-18T06:36:49.556Z,1035.76
2017-01-18T06:37:49.493Z,1035.79
2017-01-18T06:38:49.432Z,1035.84
2017-01-18T06:39:49.367Z,1035.84
2017-01-18T06:40:49.307Z,1035.85
2017-01-18T06:41:49.245Z,1035.85
2017-01-18T06:42:49.183Z,1035.86
2017-01-18T06:43:49.119Z,1035.87
2017-01-18T06:44:49.057Z,1035.88
2017-01-18T06:45:48.995Z,1035.89
2017-01-18T06:46:48.933Z,1035.88
2017-01-18T06:47:48.870Z,1035.91
2017-01-18T06:48:48.808Z,1035.93
2017-01-18T06:49:48.746Z,1035.95
2017-01-18T06:50:48.685Z,1035.95
2017-01-18T06:51:48.621Z,1035.95
2017-01-18T06:52:48.560Z,1035.91
2017-01-18T06:53:48.498Z,1035.91
2017-01-18T06:54:48.436Z,1035.95
2017-01-18T06:55:48.372Z,1035.98
2017-01-18T06:56:48.311Z,1035.91
2017-01-18T06:57:48.250Z,1035.99
2017-01-18T06:58:48.188Z,1035.96
2017-01-18T06:59:48.125Z,1035.97
2017-01-18T07:00:48.063Z,1035.94
2017-01-18T07:01:48.000Z,1035.72
2017-01-18T07:02:47.939Z,1035.71
2017-01-18T07:03:47.877Z,1035.72
2017-01-18T07:04:47.815Z,1035.72
2017-01-18T07:05:47.752Z,1035.71
2017-01-18T07:06:47.691Z,1035.73
2017-01-18T07:07:47.629Z,1035.74
2017-01-18T07:08:47.567Z,1035.72
2017-01-18T07:09:47.504Z,1035.7
2017-01-18T07:10:47.442Z,1035.75
2017-01-18T07:11:47.381Z,1035.72
2017-01-18T07:12:47.318Z,1035.76
2017-01-18T07:13:47.256Z,1035.82
2017-01-18T07:14:47.195Z,1035.83
2017-01-18T07:15:47.134Z,1035.84
2017-01-18T07:16:47.070Z,1035.84
2017-01-18T07:17:47.010Z,1035.85
2017-01-18T07:18:46.947Z,1035.85
2017-01-18T07:19:46.894Z,1035.89
2017-01-18T07:20:46.823Z,1035.9
2017-01-18T07:21:46.761Z,1035.93
2017-01-18T07:22:46.699Z,1035.93
2017-01-18T07:23:46.637Z,1035.97
2017-01-18T07:24:46.575Z,1035.98
2017-01-18T07:25:46.513Z,1036.02
2017-01-18T07:26:46.452Z,1036
2017-01-18T07:27:46.388Z,1036.06
2017-01-18T07:28:46.327Z,1036.06
2017-01-18T07:29:46.265Z,1036.05
2017-01-18T07:30:46.202Z,1036.05
2017-01-18T07:31:46.141Z,1036.08
2017-01-18T07:32:46.078Z,1036.09
2017-01-18T07:33:46.017Z,1036.04
2017-01-18T07:34:45.958Z,1036.03
2017-01-18T07:35:45.892Z,1036.05
2017-01-18T07:36:45.831Z,1036.06
2017-01-18T07:37:45.768Z,1036.08
2017-01-18T07:38:45.706Z,1036.06
2017-01-18T07:39:45.645Z,1036.07
2017-01-18T07:40:45.582Z,1036.05
2017-01-18T07:41:45.519Z,1036
2017-01-18T07:42:45.457Z,1036.02
2017-01-18T07:43:45.396Z,1036.04
2017-01-18T07:44:45.333Z,1036
2017-01-18T07:45:45.271Z,1036.01
2017-01-18T07:46:45.209Z,1036.07
2017-01-18T07:47:45.148Z,1036.04
2017-01-18T07:48:45.085Z,1036.03
2017-01-18T07:49:45.022Z,1036.04
2017-01-18T07:50:44.960Z,1036.01
2017-01-18T07:51:44.898Z,1036.03
2017-01-18T07:52:44.836Z,1036.05
2017-01-18T07:53:44.774Z,1036.03
2017-01-18T07:54:44.712Z,1036.07
2017-01-18T07:55:44.649Z,1036.03
2017-01-18T07:56:44.587Z,1036.04
2017-01-18T07:57:44.525Z,1036.04
2017-01-18T07:58:44.463Z,1036.02
2017-01-18T07:59:44.401Z,1036.04
2017-01-18T08:00:44.340Z,1036.06
2017-01-18T08:01:44.276Z,1036.05
2017-01-18T08:02:44.214Z,1036.06
2017-01-18T08:03:44.152Z,1036.04
2017-01-18T08:04:44.089Z,1036.02
2017-01-18T08:05:44.029Z,1036.04
2017-01-18T08:06:43.965Z,1036.09
2017-01-18T08:07:43.904Z,1036.09
2017-01-18T08:08:43.841Z,1036.11
2017-01-18T08:09:43.779Z,1036.15
2017-01-18T08:10:43.717Z,1036.12
2017-01-18T08:11:43.654Z,1036.12
2017-01-18T08:12:43.592Z,1036.11
2017-01-18T08:13:43.531Z,1036.06
2017-01-18T08:14:43.467Z,1036.06
2017-01-18T08:15:44.055Z,1036.09
2017-01-18T08:16:43.343Z,1036.13
2017-01-18T08:17:43.282Z,1036.16
2017-01-18T08:18:43.220Z,1036.19
2017-01-18T08:19:43.157Z,1036.18
2017-01-18T08:20:43.095Z,1036.16
2017-01-18T08:21:43.033Z,1036.18
2017-01-18T08:22:42.970Z,1036.12
2017-01-18T08:23:42.907Z,1036.18
2017-01-18T08:24:42.847Z,1036.15
2017-01-18T08:25:42.782Z,1036.12
2017-01-18T08:26:42.720Z,1036.2
2017-01-18T08:27:42.658Z,1036.14
2017-01-18T08:28:42.596Z,1036.16
2017-01-18T08:29:42.534Z,1036.18
2017-01-18T08:30:42.472Z,1036.16
2017-01-18T08:31:42.409Z,1036.16
2017-01-18T08:32:42.347Z,1036.13
2017-01-18T08:33:42.285Z,1036.16
2017-01-18T08:34:42.222Z,1036.18
2017-01-18T08:35:42.160Z,1036.15
2017-01-18T08:36:42.098Z,1036.21
2017-01-18T08:37:42.034Z,1036.21
2017-01-18T08:38:41.974Z,1036.2
2017-01-18T08:39:41.910Z,1036.24
2017-01-18T08:40:41.947Z,1036.21
2017-01-18T08:41:41.785Z,1036.2
2017-01-18T08:42:41.724Z,1036.25
2017-01-18T08:43:41.662Z,1036.25
2017-01-18T08:44:41.598Z,1036.34
2017-01-18T08:45:41.686Z,1036.37
2017-01-18T08:46:41.476Z,1036.38
2017-01-18T08:47:41.411Z,1036.34
2017-01-18T08:48:41.348Z,1036.35
2017-01-18T08:49:41.288Z,1036.38
2017-01-18T08:50:41.225Z,1036.4
2017-01-18T08:51:41.163Z,1036.36
2017-01-18T08:52:41.099Z,1036.38
2017-01-18T08:53:41.037Z,1036.39
2017-01-18T08:54:40.975Z,1036.35
2017-01-18T08:55:41.013Z,1036.34
2017-01-18T08:56:40.851Z,1036.35
2017-01-18T08:57:40.789Z,1036.37
2017-01-18T08:58:40.725Z,1036.4
2017-01-18T08:59:40.663Z,1036.41
2017-01-18T09:00:40.603Z,1036.4
2017-01-18T09:01:40.539Z,1036.39
2017-01-18T09:02:40.476Z,1036.35
2017-01-18T09:03:40.414Z,1036.37
2017-01-18T09:04:40.352Z,1036.36
2017-01-18T09:05:40.288Z,1036.38
2017-01-18T09:06:40.226Z,1036.36
2017-01-18T09:07:40.164Z,1036.4
2017-01-18T09:08:40.102Z,1036.4
2017-01-18T09:09:40.038Z,1036.4
2017-01-18T09:10:40.078Z,1036.42
2017-01-18T09:11:39.914Z,1036.4
2017-01-18T09:12:39.853Z,1036.41
2017-01-18T09:13:39.790Z,1036.39
2017-01-18T09:14:39.729Z,1036.37
2017-01-18T09:15:39.864Z,1036.39
2017-01-18T09:16:39.602Z,1036.37
2017-01-18T09:17:39.541Z,1036.44
2017-01-18T09:18:39.478Z,1036.44
2017-01-18T09:19:39.416Z,1036.46
2017-01-18T09:20:39.352Z,1036.49
2017-01-18T09:21:39.290Z,1036.5
2017-01-18T09:22:39.228Z,1036.54
2017-01-18T09:23:39.165Z,1036.52
2017-01-18T09:24:39.102Z,1036.53
2017-01-18T09:25:39.445Z,1036.53
2017-01-18T09:26:38.988Z,1036.49
2017-01-18T09:27:38.916Z,1036.53
2017-01-18T09:28:38.854Z,1036.5
2017-01-18T09:29:38.790Z,1036.51
2017-01-18T09:30:39.028Z,1036.49
2017-01-18T09:31:38.665Z,1036.47
2017-01-18T09:32:38.604Z,1036.46
2017-01-18T09:33:38.541Z,1036.52
2017-01-18T09:34:38.479Z,1036.49
2017-01-18T09:35:38.565Z,1036.55
2017-01-18T09:36:38.354Z,1036.58
2017-01-18T09:37:38.291Z,1036.56
2017-01-18T09:38:38.228Z,1036.58
2017-01-18T09:39:38.166Z,1036.64
2017-01-18T09:40:38.102Z,1036.65
2017-01-18T09:41:38.041Z,1036.69
2017-01-18T09:42:37.977Z,1036.68
2017-01-18T09:43:37.915Z,1036.67
2017-01-18T09:44:37.853Z,1036.64
2017-01-18T09:45:37.792Z,1036.6
2017-01-18T09:46:37.727Z,1036.63
2017-01-18T09:47:37.666Z,1036.64
2017-01-18T09:48:37.604Z,1036.66
2017-01-18T09:49:37.540Z,1036.64
2017-01-18T09:50:37.478Z,1036.67
2017-01-18T09:51:37.416Z,1036.66
2017-01-18T09:52:37.354Z,1036.7
2017-01-18T09:53:37.291Z,1036.69
2017-01-18T09:54:37.229Z,1036.76
2017-01-18T09:55:37.167Z,1036.75
2017-01-18T09:56:37.106Z,1036.79
2017-01-18T09:57:37.042Z,1036.81
2017-01-18T09:58:36.980Z,1036.85
2017-01-18T09:59:36.918Z,1036.84
2017-01-18T10:00:36.856Z,1036.87
2017-01-18T10:01:36.793Z,1036.87
2017-01-18T10:02:36.732Z,1036.9
2017-01-18T10:03:36.671Z,1036.85
2017-01-18T10:04:36.609Z,1036.85
2017-01-18T10:05:36.645Z,1036.77
2017-01-18T10:06:36.483Z,1036.77
2017-01-18T10:07:36.421Z,1036.74
2017-01-18T10:08:36.359Z,1036.74
2017-01-18T10:09:36.298Z,1036.7
2017-01-18T10:10:36.235Z,1036.67
2017-01-18T10:11:36.171Z,1036.63
2017-01-18T10:12:36.114Z,1036.64
2017-01-18T10:13:36.048Z,1036.65
2017-01-18T10:14:35.989Z,1036.68
2017-01-18T10:15:35.922Z,1036.69
2017-01-18T10:16:35.861Z,1036.62
2017-01-18T10:17:35.799Z,1036.59
2017-01-18T10:18:35.738Z,1036.56
2017-01-18T10:19:35.676Z,1036.63
2017-01-18T10:20:35.617Z,1036.58
2017-01-18T10:21:35.550Z,1036.61
2017-01-18T10:22:35.489Z,1036.55
2017-01-18T10:23:35.426Z,1036.57
2017-01-18T10:24:35.364Z,1036.49
2017-01-18T10:26:35.240Z,1036.5
2017-01-18T10:27:35.210Z,1036.49
2017-01-18T10:28:35.116Z,1036.46
2017-01-18T10:29:35.055Z,1036.4
2017-01-18T10:30:34.992Z,1036.45
2017-01-18T10:31:34.930Z,1036.44
2017-01-18T10:32:34.868Z,1036.41
2017-01-18T10:33:35.015Z,1036.4
2017-01-18T10:34:34.743Z,1036.39
2017-01-18T10:35:34.681Z,1036.4
2017-01-18T10:36:34.621Z,1036.45
2017-01-18T10:37:34.557Z,1036.37
2017-01-18T10:38:34.495Z,1036.39
2017-01-18T10:39:34.434Z,1036.38
2017-01-18T10:40:34.371Z,1036.37
2017-01-18T10:41:34.310Z,1036.34
2017-01-18T10:42:34.269Z,1036.38
2017-01-18T10:43:34.185Z,1036.32
2017-01-18T10:44:34.121Z,1036.33
2017-01-18T10:45:34.061Z,1036.33
2017-01-18T10:46:33.998Z,1036.31
2017-01-18T10:47:33.936Z,1036.33
2017-01-18T10:48:33.874Z,1036.33
2017-01-18T10:49:33.815Z,1036.3
2017-01-18T10:50:33.801Z,1036.25
2017-01-18T10:51:33.687Z,1036.24
2017-01-18T10:52:33.624Z,1036.22
2017-01-18T10:53:33.563Z,1036.21
2017-01-18T10:54:33.501Z,1036.23
2017-01-18T10:55:33.438Z,1036.22
2017-01-18T10:56:33.377Z,1036.2
2017-01-18T10:57:33.314Z,1036.19
2017-01-18T10:58:33.252Z,1036.19
2017-01-18T10:59:33.191Z,1036.17
2017-01-18T11:00:33.131Z,1036.19
2017-01-18T11:01:33.068Z,1036.16
2017-01-18T11:02:33.005Z,1036.17
2017-01-18T11:03:32.941Z,1036.2
2017-01-18T11:04:32.880Z,1036.16
2017-01-18T11:05:32.819Z,1036.18
2017-01-18T11:06:32.755Z,1036.14
2017-01-18T11:07:32.693Z,1036.15
2017-01-18T11:08:32.632Z,1036.18
2017-01-18T11:09:32.571Z,1036.2
2017-01-18T11:10:32.907Z,1036.15
2017-01-18T11:11:32.445Z,1036.19
2017-01-18T11:12:32.383Z,1036.18
2017-01-18T11:13:32.320Z,1036.16
2017-01-18T11:14:32.258Z,1036.2
2017-01-18T11:15:32.198Z,1036.18
2017-01-18T11:16:32.135Z,1036.22
2017-01-18T11:17:32.072Z,1036.21
2017-01-18T11:18:32.011Z,1036.17
2017-01-18T11:19:31.949Z,1036.21
2017-01-18T11:20:31.887Z,1036.17
2017-01-18T11:21:31.825Z,1036.16
2017-01-18T11:22:31.764Z,1036.2
2017-01-18T11:23:31.706Z,1036.19
2017-01-18T11:24:31.639Z,1036.18
2017-01-18T11:25:31.581Z,1036.2
2017-01-18T11:26:31.515Z,1036.23
2017-01-18T11:27:31.453Z,1036.23
2017-01-18T11:28:31.390Z,1036.21
2017-01-18T11:29:31.328Z,1036.26
2017-01-18T11:30:31.267Z,1036.25
2017-01-18T11:31:31.231Z,1036.29
2017-01-18T11:32:31.163Z,1036.28
2017-01-18T11:33:31.082Z,1036.26
2017-01-18T11:34:31.020Z,1036.28
2017-01-18T11:35:30.959Z,1036.25
2017-01-18T11:36:30.896Z,1036.27
2017-01-18T11:37:30.834Z,1036.26
2017-01-18T11:38:30.772Z,1036.25
2017-01-18T11:39:30.709Z,1036.21
2017-01-18T11:40:30.649Z,1036.26
2017-01-18T11:41:30.586Z,1036.25
2017-01-18T11:42:30.524Z,1036.21
2017-01-18T11:43:30.462Z,1036.19
2017-01-18T11:44:30.400Z,1036.18
2017-01-18T11:45:30.338Z,1036.18
2017-01-18T11:46:30.276Z,1036.17
2017-01-18T11:47:30.214Z,1036.19
2017-01-18T11:48:30.153Z,1036.18
2017-01-18T11:49:30.092Z,1036.18
2017-01-18T11:50:30.029Z,1036.2
2017-01-18T11:51:29.968Z,1036.2
2017-01-18T11:52:29.905Z,1036.18
2017-01-18T11:53:29.846Z,1036.16
2017-01-18T11:54:29.782Z,1036.16
2017-01-18T11:55:29.721Z,1036.18
2017-01-18T11:56:29.768Z,1036.21
2017-01-18T11:57:29.596Z,1036.2
2017-01-18T11:58:29.535Z,1036.22
2017-01-18T11:59:29.473Z,1036.2
2017-01-18T12:00:29.412Z,1036.19
2017-01-18T12:01:29.351Z,1036.2
2017-01-18T12:02:29.293Z,1036.14
2017-01-18T12:03:29.283Z,1036.14
2017-01-18T12:04:29.165Z,1036.14
2017-01-18T12:05:29.136Z,1036.11
2017-01-18T12:06:29.041Z,1036.12
2017-01-18T12:07:28.984Z,1036.1
2017-01-18T12:08:28.917Z,1036.11
2017-01-18T12:09:28.856Z,1036.07